TOM564 EGLL-LOWW
Flight info
| Callsign | TOM564 |
|---|---|
| Flight time | N/A |
| Altitude | 37000 |
| Route | DET L6 DVR UL9 KONAN DCT KOK UL607 FERDI DCT MATUG DCT GUBAX DCT BARSU DCT EKSOS DCT LULAR DCT RUDAP DCT BUDEX BUDEX2W |
| Aircraft | B752/M-SDE2E3FGHIJ3J4J7RWXY/LB1 |
Departure
| Time | 2026-05-07 19:13 |
|---|---|
| Airport | London Heathrow Airport (EGLL) |
Arrival
| Time | N/A |
|---|---|
| Airport | Vienna International Airport (LOWW) |
| Time | Latitude | Longitude | Altitude | Speed | Heading |
|---|---|---|---|---|---|
| 2026-05-07 18:36 | 51.46848 | -0.47503 | 94 ft | 0 kts | 270° |
| 2026-05-07 18:59 | 51.46848 | -0.47486 | 94 ft | 2 kts | 270° |
| 2026-05-07 18:59 | 51.46848 | -0.47462 | 94 ft | 2 kts | 270° |
| 2026-05-07 19:00 | 51.46848 | -0.47438 | 94 ft | 2 kts | 270° |
| 2026-05-07 19:00 | 51.46848 | -0.47414 | 94 ft | 2 kts | 270° |
| 2026-05-07 19:00 | 51.46848 | -0.47389 | 94 ft | 2 kts | 255° |
| 2026-05-07 19:00 | 51.46856 | -0.47369 | 94 ft | 2 kts | 226° |
| 2026-05-07 19:01 | 51.46867 | -0.47356 | 94 ft | 2 kts | 199° |
| 2026-05-07 19:01 | 51.46882 | -0.47353 | 94 ft | 2 kts | 175° |
| 2026-05-07 19:01 | 51.46897 | -0.47354 | 94 ft | 2 kts | 181° |
| 2026-05-07 19:01 | 51.46912 | -0.47354 | 94 ft | 2 kts | 180° |
| 2026-05-07 19:02 | 51.46927 | -0.47354 | 94 ft | 2 kts | 180° |
| 2026-05-07 19:02 | 51.46942 | -0.47354 | 94 ft | 2 kts | 180° |
| 2026-05-07 19:02 | 51.46957 | -0.47354 | 94 ft | 2 kts | 180° |
| 2026-05-07 19:02 | 51.46965 | -0.47354 | 94 ft | 0 kts | 180° |
| 2026-05-07 19:06 | 51.46952 | -0.47354 | 94 ft | 5 kts | 180° |
| 2026-05-07 19:06 | 51.46903 | -0.47354 | 94 ft | 9 kts | 180° |
| 2026-05-07 19:07 | 51.46830 | -0.47354 | 94 ft | 11 kts | 180° |
| 2026-05-07 19:07 | 51.46740 | -0.47352 | 94 ft | 14 kts | 179° |
| 2026-05-07 19:07 | 51.46661 | -0.47396 | 94 ft | 10 kts | 248° |
| 2026-05-07 19:07 | 51.46654 | -0.47519 | 94 ft | 11 kts | 270° |
| 2026-05-07 19:08 | 51.46654 | -0.47653 | 94 ft | 13 kts | 270° |
| 2026-05-07 19:08 | 51.46653 | -0.47825 | 94 ft | 17 kts | 270° |
| 2026-05-07 19:08 | 51.46652 | -0.48034 | 94 ft | 16 kts | 270° |
| 2026-05-07 19:08 | 51.46652 | -0.48104 | 94 ft | 0 kts | 270° |
| 2026-05-07 19:09 | 51.46652 | -0.48113 | 94 ft | 3 kts | 270° |
| 2026-05-07 19:09 | 51.46652 | -0.48175 | 94 ft | 6 kts | 270° |
| 2026-05-07 19:09 | 51.46652 | -0.48269 | 94 ft | 9 kts | 270° |
| 2026-05-07 19:10 | 51.46651 | -0.48381 | 94 ft | 11 kts | 270° |
| 2026-05-07 19:10 | 51.46651 | -0.48525 | 94 ft | 14 kts | 270° |
| 2026-05-07 19:10 | 51.46651 | -0.48689 | 94 ft | 12 kts | 266° |
| 2026-05-07 19:10 | 51.46604 | -0.48765 | 94 ft | 5 kts | 201° |
| 2026-05-07 19:11 | 51.46562 | -0.48785 | 94 ft | 9 kts | 189° |
| 2026-05-07 19:11 | 51.46491 | -0.48743 | 94 ft | 13 kts | 127° |
| 2026-05-07 19:11 | 51.46479 | -0.48583 | 94 ft | 5 kts | 90° |
| 2026-05-07 19:11 | 51.46479 | -0.48582 | 94 ft | 0 kts | 90° |
| 2026-05-07 19:12 | 51.46478 | -0.48513 | 94 ft | 19 kts | 91° |
| 2026-05-07 19:12 | 51.46479 | -0.47885 | 94 ft | 93 kts | 90° |
| 2026-05-07 19:12 | 51.46486 | -0.46478 | 140 ft | 155 kts | 92° |
| 2026-05-07 19:12 | 51.46500 | -0.44608 | 663 ft | 180 kts | 92° |
| 2026-05-07 19:13 | 51.46501 | -0.42570 | 1569 ft | 186 kts | 97° |
| 2026-05-07 19:13 | 51.46133 | -0.40592 | 2180 ft | 202 kts | 123° |
| 2026-05-07 19:13 | 51.45303 | -0.38641 | 2824 ft | 220 kts | 124° |
| 2026-05-07 19:13 | 51.44449 | -0.36432 | 3233 ft | 251 kts | 119° |
| 2026-05-07 19:14 | 51.43799 | -0.33756 | 4134 ft | 260 kts | 107° |
| 2026-05-07 19:14 | 51.43310 | -0.31014 | 5145 ft | 264 kts | 107° |
| 2026-05-07 19:14 | 51.42836 | -0.28148 | 5961 ft | 274 kts | 105° |
| 2026-05-07 19:14 | 51.42377 | -0.25084 | 6054 ft | 281 kts | 104° |
| 2026-05-07 19:15 | 51.41950 | -0.22105 | 6000 ft | 276 kts | 103° |
| 2026-05-07 19:15 | 51.41523 | -0.19069 | 6003 ft | 279 kts | 103° |
| 2026-05-07 19:15 | 51.41102 | -0.16050 | 6063 ft | 278 kts | 103° |
| 2026-05-07 19:15 | 51.40688 | -0.13070 | 6044 ft | 266 kts | 103° |
| 2026-05-07 19:16 | 51.40285 | -0.10160 | 6053 ft | 267 kts | 103° |
| 2026-05-07 19:16 | 51.39878 | -0.07232 | 6054 ft | 270 kts | 103° |
| 2026-05-07 19:16 | 51.39475 | -0.04322 | 6055 ft | 270 kts | 103° |
| 2026-05-07 19:16 | 51.39064 | -0.01367 | 6051 ft | 268 kts | 103° |
| 2026-05-07 19:17 | 51.38661 | 0.01530 | 6054 ft | 268 kts | 103° |
| 2026-05-07 19:17 | 51.38255 | 0.04439 | 6054 ft | 269 kts | 103° |
| 2026-05-07 19:17 | 51.37839 | 0.07420 | 6124 ft | 275 kts | 103° |
| 2026-05-07 19:17 | 51.37421 | 0.10407 | 7124 ft | 275 kts | 103° |
| 2026-05-07 19:18 | 51.37009 | 0.13346 | 8088 ft | 279 kts | 103° |
| 2026-05-07 19:18 | 51.36581 | 0.16389 | 8987 ft | 284 kts | 103° |
| 2026-05-07 19:18 | 51.36143 | 0.19500 | 9879 ft | 289 kts | 104° |
| 2026-05-07 19:18 | 51.35701 | 0.22634 | 10757 ft | 293 kts | 104° |
| 2026-05-07 19:19 | 51.35251 | 0.25813 | 11618 ft | 297 kts | 104° |
| 2026-05-07 19:19 | 51.34798 | 0.29013 | 12451 ft | 301 kts | 104° |
| 2026-05-07 19:19 | 51.34336 | 0.32270 | 13296 ft | 305 kts | 104° |
| 2026-05-07 19:19 | 51.33856 | 0.35634 | 13822 ft | 321 kts | 104° |
| 2026-05-07 19:20 | 51.33343 | 0.39222 | 14178 ft | 341 kts | 104° |
| 2026-05-07 19:20 | 51.32798 | 0.43035 | 14481 ft | 361 kts | 104° |
| 2026-05-07 19:20 | 51.32220 | 0.47059 | 14768 ft | 381 kts | 104° |
| 2026-05-07 19:20 | 51.31608 | 0.51318 | 15093 ft | 398 kts | 103° |
| 2026-05-07 19:21 | 51.30987 | 0.55635 | 15761 ft | 405 kts | 103° |
| 2026-05-07 19:21 | 51.30339 | 0.60055 | 16260 ft | 411 kts | 105° |
| 2026-05-07 19:21 | 51.29559 | 0.64339 | 17515 ft | 399 kts | 107° |
| 2026-05-07 19:21 | 51.28785 | 0.68594 | 18632 ft | 392 kts | 108° |
| 2026-05-07 19:22 | 51.28140 | 0.72890 | 19247 ft | 399 kts | 98° |
| 2026-05-07 19:22 | 51.27850 | 0.77324 | 19926 ft | 403 kts | 97° |
| 2026-05-07 19:22 | 51.27576 | 0.81742 | 20577 ft | 407 kts | 96° |
| 2026-05-07 19:22 | 51.27300 | 0.86277 | 21210 ft | 412 kts | 96° |
| 2026-05-07 19:23 | 51.27018 | 0.90874 | 21859 ft | 415 kts | 96° |
| 2026-05-07 19:23 | 51.26735 | 0.95462 | 22459 ft | 420 kts | 96° |
| 2026-05-07 19:23 | 51.26448 | 1.00093 | 23055 ft | 424 kts | 96° |
| 2026-05-07 19:23 | 51.26157 | 1.04762 | 23628 ft | 428 kts | 96° |
| 2026-05-07 19:24 | 51.25858 | 1.09542 | 24191 ft | 432 kts | 96° |
| 2026-05-07 19:24 | 51.25561 | 1.14300 | 24755 ft | 435 kts | 96° |
| 2026-05-07 19:24 | 51.25259 | 1.19112 | 25260 ft | 440 kts | 96° |
| 2026-05-07 19:24 | 51.24952 | 1.24009 | 25809 ft | 443 kts | 96° |
| 2026-05-07 19:25 | 51.24631 | 1.28873 | 26276 ft | 447 kts | 99° |
| 2026-05-07 19:25 | 51.23962 | 1.33712 | 26775 ft | 448 kts | 108° |
| 2026-05-07 19:25 | 51.23043 | 1.38499 | 27221 ft | 452 kts | 107° |
| 2026-05-07 19:25 | 51.22199 | 1.43324 | 27725 ft | 455 kts | 106° |
| 2026-05-07 19:26 | 51.21379 | 1.48201 | 28150 ft | 459 kts | 105° |
| 2026-05-07 19:26 | 51.20571 | 1.53149 | 28607 ft | 462 kts | 105° |
| 2026-05-07 19:26 | 51.19761 | 1.58180 | 29040 ft | 466 kts | 105° |
| 2026-05-07 19:26 | 51.18967 | 1.63150 | 29455 ft | 469 kts | 105° |
| 2026-05-07 19:27 | 51.18163 | 1.68193 | 29869 ft | 472 kts | 105° |
| 2026-05-07 19:27 | 51.17346 | 1.73324 | 30274 ft | 475 kts | 105° |
| 2026-05-07 19:27 | 51.16530 | 1.78441 | 30656 ft | 478 kts | 105° |
| 2026-05-07 19:27 | 51.15705 | 1.83607 | 30997 ft | 480 kts | 105° |
| 2026-05-07 19:28 | 51.14049 | 1.93937 | 31049 ft | 478 kts | 105° |
| 2026-05-07 19:28 | 51.12882 | 2.04297 | 31062 ft | 477 kts | 96° |
| 2026-05-07 19:29 | 51.12177 | 2.14843 | 31056 ft | 477 kts | 102° |
| 2026-05-07 19:29 | 51.10808 | 2.25188 | 31051 ft | 477 kts | 102° |
| 2026-05-07 19:30 | 51.09537 | 2.35476 | 31050 ft | 478 kts | 101° |
| 2026-05-07 19:30 | 51.08293 | 2.45941 | 31056 ft | 478 kts | 101° |
| 2026-05-07 19:31 | 51.07053 | 2.56249 | 31054 ft | 478 kts | 101° |
| 2026-05-07 19:31 | 51.05783 | 2.66718 | 31332 ft | 485 kts | 102° |
| 2026-05-07 19:32 | 51.05138 | 2.72005 | 31716 ft | 487 kts | 102° |
| 2026-05-07 19:32 | 51.04533 | 2.76943 | 32090 ft | 488 kts | 102° |
| 2026-05-07 19:32 | 51.03952 | 2.81668 | 32561 ft | 486 kts | 102° |
| 2026-05-07 19:32 | 51.03305 | 2.86907 | 33015 ft | 484 kts | 102° |
| 2026-05-07 19:33 | 51.02684 | 2.91917 | 33416 ft | 484 kts | 102° |
| 2026-05-07 19:33 | 51.02148 | 2.96228 | 33755 ft | 483 kts | 102° |
| 2026-05-07 19:33 | 51.01592 | 3.00689 | 34125 ft | 482 kts | 102° |